createdAt,value
2023-01-11T00:01:50.021Z,96867.59
2023-01-11T00:04:19.309Z,96858.53
2023-01-11T00:06:47.672Z,96847.31
2023-01-11T00:09:17.063Z,96865.91
2023-01-11T00:11:44.797Z,96852.00
2023-01-11T00:14:12.608Z,96863.00
2023-01-11T00:16:40.648Z,96868.91
2023-01-11T00:19:08.549Z,96869.34
2023-01-11T00:21:37.684Z,96867.47
2023-01-11T00:24:06.520Z,96874.84
2023-01-11T00:26:34.372Z,96858.84
2023-01-11T00:29:02.119Z,96863.94
2023-01-11T00:31:29.887Z,96857.41
2023-01-11T00:33:58.275Z,96852.75
2023-01-11T00:36:26.101Z,96846.09
2023-01-11T00:38:55.510Z,96847.13
2023-01-11T00:41:41.926Z,96844.69
2023-01-11T00:44:29.058Z,96851.47
2023-01-11T00:47:15.225Z,96855.94
2023-01-11T00:49:43.760Z,96857.38
2023-01-11T00:52:12.006Z,96857.59
2023-01-11T00:54:43.018Z,96850.47
2023-01-11T00:57:10.981Z,96848.47
2023-01-11T00:59:40.573Z,96848.84
2023-01-11T01:02:09.319Z,96851.44
2023-01-11T01:04:37.117Z,96860.94
2023-01-11T01:07:05.427Z,96857.19
2023-01-11T01:09:33.778Z,96859.28
2023-01-11T01:12:03.133Z,96858.72
2023-01-11T01:14:30.038Z,96864.22
2023-01-11T01:16:59.738Z,96860.94
2023-01-11T01:19:29.037Z,96859.88
2023-01-11T01:21:57.440Z,96857.78
2023-01-11T01:24:28.212Z,96859.94
2023-01-11T01:26:56.225Z,96854.56
2023-01-11T01:29:25.799Z,96857.84
2023-01-11T01:31:53.915Z,96848.56
2023-01-11T01:34:21.607Z,96836.53
2023-01-11T01:36:49.662Z,96837.69
2023-01-11T01:39:17.737Z,96838.16
2023-01-11T01:41:45.463Z,96844.94
2023-01-11T01:44:55.288Z,96839.97
2023-01-11T01:47:27.851Z,96830.03
2023-01-11T01:49:55.980Z,96833.69
2023-01-11T01:52:28.914Z,96834.66
2023-01-11T01:55:01.848Z,96815.72
2023-01-11T01:57:34.127Z,96818.88
2023-01-11T02:00:07.256Z,96818.31
2023-01-11T02:02:37.052Z,96823.22
2023-01-11T02:05:07.088Z,96817.31
2023-01-11T02:07:37.359Z,96828.38
2023-01-11T02:10:07.942Z,96825.53
2023-01-11T02:12:39.652Z,96827.59
2023-01-11T02:15:11.433Z,96820.19
2023-01-11T02:17:39.267Z,96805.31
2023-01-11T02:20:27.903Z,96801.06
2023-01-11T02:23:21.528Z,96808.56
2023-01-11T02:26:14.326Z,96804.84
2023-01-11T02:28:53.040Z,96802.13
2023-01-11T02:31:30.043Z,96800.88
2023-01-11T02:34:11.126Z,96775.72
2023-01-11T02:36:49.930Z,96782.50
2023-01-11T02:39:28.183Z,96778.38
2023-01-11T02:42:19.882Z,96775.34
2023-01-11T02:45:03.201Z,96760.38
2023-01-11T02:47:40.569Z,96774.91
2023-01-11T02:50:15.178Z,96769.34
2023-01-11T02:52:50.534Z,96757.34
2023-01-11T02:55:23.554Z,96765.94
2023-01-11T02:57:55.407Z,96754.22
2023-01-11T03:00:25.927Z,96756.69
2023-01-11T03:03:09.853Z,96753.41
2023-01-11T03:05:42.967Z,96751.38
2023-01-11T03:08:26.613Z,96756.31
2023-01-11T03:11:04.649Z,96755.09
2023-01-11T03:13:45.415Z,96747.69
2023-01-11T03:16:24.456Z,96751.03
2023-01-11T03:19:01.189Z,96735.53
2023-01-11T03:21:42.185Z,96751.50
2023-01-11T03:24:17.791Z,96751.28
2023-01-11T03:26:54.945Z,96739.00
2023-01-11T03:29:30.436Z,96744.13
2023-01-11T03:32:15.515Z,96736.38
2023-01-11T03:34:50.998Z,96726.22
2023-01-11T03:37:23.914Z,96728.25
2023-01-11T03:40:03.902Z,96720.09
2023-01-11T03:42:33.972Z,96713.94
2023-01-11T03:45:04.000Z,96714.34
2023-01-11T03:47:35.290Z,96711.09
2023-01-11T03:50:08.060Z,96715.63
2023-01-11T03:52:39.126Z,96718.66
2023-01-11T03:55:11.332Z,96711.75
2023-01-11T03:57:43.953Z,96711.34
2023-01-11T04:00:12.723Z,96712.34
2023-01-11T04:02:42.364Z,96694.78
2023-01-11T04:05:11.873Z,96703.38
2023-01-11T04:07:39.624Z,96705.00
2023-01-11T04:10:08.648Z,96704.59
2023-01-11T04:12:36.456Z,96693.53
2023-01-11T04:15:05.281Z,96685.38
2023-01-11T04:17:33.469Z,96680.03
2023-01-11T04:20:02.527Z,96684.34
2023-01-11T04:22:30.291Z,96688.00
2023-01-11T04:24:58.024Z,96692.50
2023-01-11T04:27:25.921Z,96677.19
2023-01-11T04:29:53.829Z,96686.59
2023-01-11T04:32:21.549Z,96686.41
2023-01-11T04:34:50.492Z,96684.16
2023-01-11T04:37:19.894Z,96700.50
2023-01-11T04:39:47.659Z,96688.66
2023-01-11T04:42:20.371Z,96695.00
2023-01-11T04:44:49.131Z,96695.78
2023-01-11T04:47:17.644Z,96698.28
2023-01-11T04:49:45.818Z,96687.84
2023-01-11T04:52:15.832Z,96678.44
2023-01-11T04:54:45.493Z,96681.91
2023-01-11T04:57:15.381Z,96675.38
2023-01-11T04:59:43.280Z,96659.44
2023-01-11T05:02:11.336Z,96675.16
2023-01-11T05:04:39.045Z,96677.22
2023-01-11T05:07:08.218Z,96681.09
2023-01-11T05:09:36.267Z,96673.75
2023-01-11T05:12:06.093Z,96682.13
2023-01-11T05:14:33.858Z,96671.06
2023-01-11T05:17:01.602Z,96672.28
2023-01-11T05:19:29.758Z,96672.09
2023-01-11T05:21:57.608Z,96666.41
2023-01-11T05:24:25.334Z,96664.53
2023-01-11T05:26:53.337Z,96663.75
2023-01-11T05:29:22.489Z,96665.13
2023-01-11T05:31:51.220Z,96664.09
2023-01-11T05:34:19.841Z,96666.38
2023-01-11T05:36:47.676Z,96651.84
2023-01-11T05:39:16.154Z,96665.75
2023-01-11T05:41:44.108Z,96640.63
2023-01-11T05:44:31.541Z,96655.94
2023-01-11T05:47:00.903Z,96648.34
2023-01-11T05:49:28.668Z,96660.81
2023-01-11T05:51:56.661Z,96648.34
2023-01-11T05:54:24.445Z,96658.78
2023-01-11T05:56:52.628Z,96645.72
2023-01-11T05:59:20.979Z,96657.59
2023-01-11T06:01:50.058Z,96646.53
2023-01-11T06:04:19.201Z,96653.31
2023-01-11T06:06:47.016Z,96652.28
2023-01-11T06:09:14.856Z,96649.81
2023-01-11T06:11:42.916Z,96650.00
2023-01-11T06:14:10.746Z,96659.41
2023-01-11T06:16:38.615Z,96647.34
2023-01-11T06:19:06.792Z,96658.00
2023-01-11T06:21:36.055Z,96655.94
2023-01-11T06:24:04.170Z,96650.41
2023-01-11T06:26:32.289Z,96649.19
2023-01-11T06:29:00.001Z,96648.38
2023-01-11T06:31:28.106Z,96654.09
2023-01-11T06:33:55.878Z,96633.47
2023-01-11T06:36:23.671Z,96638.75
2023-01-11T06:38:53.505Z,96642.25
2023-01-11T06:41:21.315Z,96648.78
2023-01-11T06:43:49.153Z,96635.72
2023-01-11T06:46:19.226Z,96639.59
2023-01-11T06:48:47.921Z,96647.97
2023-01-11T06:51:16.818Z,96647.97
2023-01-11T06:53:46.267Z,96649.19
2023-01-11T06:56:17.437Z,96656.78
2023-01-11T06:58:47.124Z,96666.97
2023-01-11T07:01:15.505Z,96665.38
2023-01-11T07:03:44.181Z,96662.72
2023-01-11T07:06:11.977Z,96653.47
2023-01-11T07:08:39.695Z,96646.56
2023-01-11T07:11:07.450Z,96650.22
2023-01-11T07:13:36.700Z,96647.38
2023-01-11T07:16:04.624Z,96651.47
2023-01-11T07:18:33.529Z,96641.88
2023-01-11T07:21:02.414Z,96643.91
2023-01-11T07:23:30.613Z,96652.25
2023-01-11T07:25:58.418Z,96660.81
2023-01-11T07:28:28.373Z,96647.34
2023-01-11T07:30:59.895Z,96651.00
2023-01-11T07:33:28.719Z,96655.31
2023-01-11T07:35:58.346Z,96659.41
2023-01-11T07:38:26.130Z,96651.44
2023-01-11T07:40:53.905Z,96640.03
2023-01-11T07:43:23.242Z,96628.38
2023-01-11T07:45:53.402Z,96603.22
2023-01-11T07:48:26.873Z,96629.38
2023-01-11T07:50:55.743Z,96621.63
2023-01-11T07:53:25.511Z,96624.06
2023-01-11T07:55:53.452Z,96618.31
2023-01-11T07:58:21.290Z,96625.06
2023-01-11T08:00:50.256Z,96617.72
2023-01-11T08:03:18.083Z,96629.75
2023-01-11T08:05:50.788Z,96641.56
2023-01-11T08:08:18.552Z,96642.41
2023-01-11T08:10:46.337Z,96641.13
2023-01-11T08:13:32.435Z,96637.88
2023-01-11T08:16:01.323Z,96629.69
2023-01-11T08:18:29.340Z,96641.56
2023-01-11T08:20:58.483Z,96639.00
2023-01-11T08:23:27.439Z,96639.59
2023-01-11T08:25:58.160Z,96647.97
2023-01-11T08:28:26.303Z,96638.19
2023-01-11T08:30:54.157Z,96636.38
2023-01-11T08:33:21.987Z,96653.28
2023-01-11T08:35:49.708Z,96654.91
2023-01-11T08:38:19.027Z,96650.72
2023-01-11T08:40:46.729Z,96651.91
2023-01-11T08:43:14.908Z,96643.91
2023-01-11T08:45:42.684Z,96647.56
2023-01-11T08:48:12.461Z,96653.25
2023-01-11T08:50:40.247Z,96648.56
2023-01-11T08:53:07.998Z,96655.34
2023-01-11T08:55:37.300Z,96655.81
2023-01-11T08:58:05.041Z,96654.09
2023-01-11T09:00:32.798Z,96643.91
2023-01-11T09:03:03.642Z,96643.50
2023-01-11T09:05:31.495Z,96642.19
2023-01-11T09:07:59.248Z,96654.94
2023-01-11T09:10:27.334Z,96650.38
2023-01-11T09:12:56.981Z,96656.03
2023-01-11T09:15:26.497Z,96660.56
2023-01-11T09:17:54.840Z,96649.50
2023-01-11T09:20:22.967Z,96657.28
2023-01-11T09:22:53.187Z,96652.78
2023-01-11T09:25:22.126Z,96665.81
2023-01-11T09:27:52.245Z,96676.06
2023-01-11T09:30:23.967Z,96667.28
2023-01-11T09:32:53.010Z,96672.00
2023-01-11T09:35:21.951Z,96670.28
2023-01-11T09:37:50.418Z,96658.16
2023-01-11T09:40:22.582Z,96671.28
2023-01-11T09:42:53.167Z,96663.94
2023-01-11T09:45:24.577Z,96666.13
2023-01-11T09:48:00.937Z,96665.19
2023-01-11T09:50:31.639Z,96662.97
2023-01-11T09:53:03.373Z,96659.91
2023-01-11T09:55:36.282Z,96662.06
2023-01-11T09:58:22.903Z,96655.59
2023-01-11T10:01:01.942Z,96649.53
2023-01-11T10:03:47.629Z,96656.66
2023-01-11T10:06:23.028Z,96637.38
2023-01-11T10:18:26.523Z,96635.13
2023-01-11T10:18:48.836Z,96629.59
2023-01-11T10:21:15.154Z,96622.63
2023-01-11T10:23:51.021Z,96621.06
2023-01-11T10:26:28.353Z,96626.59
2023-01-11T10:29:20.624Z,96619.53
2023-01-11T10:32:09.655Z,96625.03
2023-01-11T10:34:59.847Z,96623.59
2023-01-11T10:37:48.192Z,96629.16
2023-01-11T10:40:41.141Z,96623.78
2023-01-11T10:43:17.059Z,96625.66
2023-01-11T10:45:50.831Z,96617.34
2023-01-11T10:48:23.857Z,96620.22
2023-01-11T10:51:01.673Z,96615.19
2023-01-11T10:53:36.862Z,96604.94
2023-01-11T10:56:15.733Z,96618.00
2023-01-11T10:59:08.465Z,96621.09
2023-01-11T11:01:56.343Z,96613.41
2023-01-11T11:04:52.025Z,96600.38
2023-01-11T11:07:27.229Z,96616.56
2023-01-11T11:10:03.529Z,96607.16
2023-01-11T11:12:33.730Z,96613.81
2023-01-11T11:15:10.124Z,96614.63
2023-01-11T11:17:41.317Z,96609.38
2023-01-11T11:20:15.219Z,96625.13
2023-01-11T11:22:45.535Z,96624.97
2023-01-11T11:25:17.811Z,96625.22
2023-01-11T11:27:49.883Z,96608.88
2023-01-11T11:30:29.297Z,96613.59
2023-01-11T11:33:01.262Z,96618.31
2023-01-11T11:35:35.813Z,96618.13
2023-01-11T11:38:05.799Z,96613.66
2023-01-11T11:40:36.353Z,96606.69
2023-01-11T11:43:12.843Z,96612.59
2023-01-11T11:45:51.867Z,96606.69
2023-01-11T11:48:19.977Z,96605.03
2023-01-11T11:50:49.332Z,96596.06
2023-01-11T11:53:43.045Z,96602.16
2023-01-11T11:56:21.838Z,96611.19
2023-01-11T11:58:50.140Z,96602.63
2023-01-11T12:01:25.516Z,96598.53
2023-01-11T12:03:56.729Z,96593.03
2023-01-11T12:06:27.911Z,96600.56
2023-01-11T12:09:00.020Z,96609.38
2023-01-11T12:11:35.010Z,96605.94
2023-01-11T12:14:07.704Z,96596.94
2023-01-11T12:16:39.860Z,96598.34
2023-01-11T12:19:27.138Z,96588.34
2023-01-11T12:21:55.258Z,96586.47
2023-01-11T12:24:28.156Z,96587.91
2023-01-11T12:27:08.062Z,96571.72
2023-01-11T12:29:52.223Z,96571.97
2023-01-11T12:32:51.984Z,96571.16
2023-01-11T12:35:35.395Z,96578.31
2023-01-11T12:38:16.169Z,96577.28
2023-01-11T12:41:01.607Z,96577.72
2023-01-11T12:43:44.900Z,96578.94
2023-01-11T12:46:22.698Z,96577.47
2023-01-11T12:49:05.875Z,96575.84
2023-01-11T12:51:46.597Z,96571.97
2023-01-11T12:54:29.912Z,96570.69
2023-01-11T12:57:12.754Z,96556.81
2023-01-11T13:00:14.726Z,96568.44
2023-01-11T13:03:05.611Z,96569.44
2023-01-11T13:05:40.678Z,96590.28
2023-01-11T13:08:17.621Z,96566.81
2023-01-11T13:10:56.918Z,96576.41
2023-01-11T13:13:34.379Z,96574.94
2023-01-11T13:16:06.394Z,96581.72
2023-01-11T13:18:42.249Z,96588.66
2023-01-11T13:21:19.672Z,96596.25
2023-01-11T13:23:51.288Z,96583.44
2023-01-11T13:26:24.738Z,96607.91
2023-01-11T13:28:58.981Z,96598.09
2023-01-11T13:31:28.396Z,96596.47
2023-01-11T13:34:02.658Z,96580.09
2023-01-11T13:36:37.456Z,96601.31
2023-01-11T13:39:14.104Z,96597.44
2023-01-11T13:41:47.349Z,96584.38
2023-01-11T13:44:22.307Z,96597.22
2023-01-11T13:46:58.855Z,96582.31
2023-01-11T13:49:38.192Z,96598.47
2023-01-11T13:52:13.506Z,96603.97
2023-01-11T13:54:53.607Z,96607.25
2023-01-11T13:57:28.444Z,96609.06
2023-01-11T14:00:06.122Z,96618.88
2023-01-11T14:02:40.982Z,96609.91
2023-01-11T14:05:16.230Z,96625.88
2023-01-11T14:08:00.752Z,96623.84
2023-01-11T14:10:39.957Z,96619.34
2023-01-11T14:13:43.064Z,96620.59
2023-01-11T14:16:19.929Z,96638.19
2023-01-11T14:18:58.723Z,96641.25
2023-01-11T14:21:31.935Z,96648.84
2023-01-11T14:24:00.676Z,96654.59
2023-01-11T14:26:46.135Z,96643.13
2023-01-11T14:29:36.624Z,96667.72
2023-01-11T14:32:45.590Z,96677.91
2023-01-11T14:35:36.114Z,96668.09
2023-01-11T14:38:22.100Z,96667.50
2023-01-11T14:41:15.918Z,96669.53
2023-01-11T14:44:06.195Z,96665.06
2023-01-11T14:47:02.505Z,96661.16
2023-01-11T14:49:52.846Z,96675.50
2023-01-11T14:52:38.959Z,96664.84
2023-01-11T14:55:16.633Z,96669.94
2023-01-11T14:57:46.310Z,96674.06
2023-01-11T15:00:59.526Z,96672.59
2023-01-11T15:03:42.616Z,96681.63
2023-01-11T15:06:17.200Z,96688.56
2023-01-11T15:08:48.319Z,96669.16
2023-01-11T15:11:39.109Z,96678.34
2023-01-11T15:14:26.017Z,96693.09
2023-01-11T15:17:15.495Z,96677.53
2023-01-11T15:19:44.881Z,96690.41
2023-01-11T15:22:25.604Z,96708.22
2023-01-11T15:25:02.063Z,96684.50
2023-01-11T15:27:34.461Z,96712.31
2023-01-11T15:30:02.345Z,96710.09
2023-01-11T15:32:31.948Z,96710.28
2023-01-11T15:35:18.426Z,96718.88
2023-01-11T15:37:57.172Z,96736.06
2023-01-11T15:40:27.026Z,96716.22
2023-01-11T15:43:16.609Z,96738.47
2023-01-11T15:46:27.622Z,96754.06
2023-01-11T15:49:40.964Z,96729.91
2023-01-11T15:52:51.988Z,96746.28
2023-01-11T15:56:09.946Z,96732.31
2023-01-11T15:59:07.355Z,96750.50
2023-01-11T16:01:48.887Z,96766.50
2023-01-11T16:04:29.403Z,96779.78
2023-01-11T16:06:59.922Z,96796.41
2023-01-11T16:09:45.876Z,96808.28
2023-01-11T16:12:35.108Z,96807.88
2023-01-11T16:15:32.196Z,96799.69
2023-01-11T16:18:12.229Z,96778.59
2023-01-11T16:20:42.959Z,96809.13
2023-01-11T16:23:20.324Z,96807.06
2023-01-11T16:25:55.964Z,96825.88
2023-01-11T16:28:26.233Z,96824.06
2023-01-11T16:30:59.025Z,96827.16
2023-01-11T16:33:29.176Z,96830.81
2023-01-11T16:36:11.215Z,96830.22
2023-01-11T16:38:47.870Z,96839.00
2023-01-11T16:41:17.975Z,96847.63
2023-01-11T16:43:55.851Z,96849.25
2023-01-11T16:46:57.149Z,96862.97
2023-01-11T16:49:25.246Z,96864.19
2023-01-11T16:51:54.116Z,96869.31
2023-01-11T16:54:26.312Z,96867.28
2023-01-11T16:56:55.519Z,96873.59
2023-01-11T16:59:30.506Z,96868.50
2023-01-11T17:01:59.993Z,96874.00
2023-01-11T17:04:30.242Z,96871.59
2023-01-11T17:06:58.737Z,96851.31
2023-01-11T17:09:29.560Z,96886.13
2023-01-11T17:11:57.759Z,96892.88
2023-01-11T17:14:47.037Z,96884.91
2023-01-11T17:17:15.152Z,96888.59
2023-01-11T17:19:48.903Z,96875.25
2023-01-11T17:22:23.692Z,96895.31
2023-01-11T17:24:55.501Z,96895.53
2023-01-11T17:27:27.049Z,96894.09
2023-01-11T17:29:58.431Z,96890.03
2023-01-11T17:32:39.208Z,96898.63
2023-01-11T17:35:12.143Z,96905.16
2023-01-11T17:37:40.761Z,96904.94
2023-01-11T17:40:22.061Z,96901.47
2023-01-11T17:43:08.800Z,96907.00
2023-01-11T17:45:39.131Z,96913.78
2023-01-11T17:48:13.250Z,96910.47
2023-01-11T17:50:48.462Z,96923.59
2023-01-11T17:53:18.975Z,96921.31
2023-01-11T17:55:54.828Z,96922.75
2023-01-11T17:58:26.986Z,96924.78
2023-01-11T18:01:21.728Z,96903.72
2023-01-11T18:03:51.761Z,96944.03
2023-01-11T18:06:35.375Z,96925.41
2023-01-11T18:09:05.760Z,96921.91
2023-01-11T18:11:35.894Z,96932.78
2023-01-11T18:14:06.893Z,96935.25
2023-01-11T18:16:36.368Z,96920.28
2023-01-11T18:19:24.620Z,96938.94
2023-01-11T18:21:54.895Z,96940.16
2023-01-11T18:24:43.411Z,96925.63
2023-01-11T18:27:27.453Z,96931.78
2023-01-11T18:29:56.584Z,96913.75
2023-01-11T18:32:26.933Z,96929.72
2023-01-11T18:34:56.036Z,96931.78
2023-01-11T18:37:23.875Z,96928.50
2023-01-11T18:39:53.409Z,96930.94
2023-01-11T18:42:25.609Z,96908.81
2023-01-11T18:44:53.373Z,96935.66
2023-01-11T18:47:23.500Z,96914.53
2023-01-11T18:49:54.195Z,96930.94
2023-01-11T18:52:27.319Z,96940.34
2023-01-11T18:54:55.769Z,96944.88
2023-01-11T18:57:24.239Z,96936.25
2023-01-11T18:59:53.810Z,96952.84
2023-01-11T19:02:25.038Z,96951.03
2023-01-11T19:04:56.098Z,96944.88
2023-01-11T19:07:24.888Z,96961.66
2023-01-11T19:09:54.831Z,96957.13
2023-01-11T19:12:23.330Z,96967.56
2023-01-11T19:14:51.134Z,96970.66
2023-01-11T19:17:19.020Z,96974.97
2023-01-11T19:19:47.101Z,96970.88
2023-01-11T19:22:16.404Z,96962.91
2023-01-11T19:24:44.369Z,96957.75
2023-01-11T19:27:13.661Z,96958.97
2023-01-11T19:29:41.936Z,96946.47
2023-01-11T19:32:10.129Z,96950.94
2023-01-11T19:34:39.600Z,96966.66
2023-01-11T19:37:07.429Z,96958.25
2023-01-11T19:39:36.897Z,96970.84
2023-01-11T19:42:04.838Z,96967.63
2023-01-11T19:44:33.844Z,96972.13
2023-01-11T19:47:11.253Z,96969.97
2023-01-11T19:49:39.769Z,96987.38
2023-01-11T19:52:13.728Z,96972.28
2023-01-11T19:54:44.108Z,97004.19
2023-01-11T19:57:14.187Z,97008.34
2023-01-11T19:59:42.170Z,97014.22
2023-01-11T20:02:12.872Z,97027.28
2023-01-11T20:04:41.905Z,97018.81
2023-01-11T20:07:11.221Z,97030.53
2023-01-11T20:09:39.604Z,97039.41
2023-01-11T20:12:10.072Z,97046.47
2023-01-11T20:14:40.409Z,97048.63
2023-01-11T20:17:08.449Z,97041.38
2023-01-11T20:19:36.505Z,97024.25
2023-01-11T20:22:04.625Z,97032.59
2023-01-11T20:24:32.510Z,97030.31
2023-01-11T20:27:02.915Z,97021.59
2023-01-11T20:29:32.410Z,97023.28
2023-01-11T20:32:18.609Z,97028.50
2023-01-11T20:34:47.921Z,97035.25
2023-01-11T20:37:16.396Z,97043.94
2023-01-11T20:39:44.625Z,97044.97
2023-01-11T20:42:12.624Z,97040.47
2023-01-11T20:44:41.820Z,97040.81
2023-01-11T20:47:09.607Z,97012.06
2023-01-11T20:49:37.407Z,97049.75
2023-01-11T20:52:05.593Z,97044.31
2023-01-11T20:54:33.765Z,97048.88
2023-01-11T20:57:05.669Z,97049.53
2023-01-11T20:59:33.582Z,97035.78
2023-01-11T21:02:02.686Z,97044.94
2023-01-11T21:04:30.843Z,97054.56
2023-01-11T21:06:58.623Z,97052.00
2023-01-11T21:09:26.410Z,97059.06
2023-01-11T21:11:54.600Z,97065.50
2023-01-11T21:14:23.021Z,97053.94
2023-01-11T21:16:50.793Z,97049.16
2023-01-11T21:19:20.182Z,97063.31
2023-01-11T21:21:49.748Z,97072.66
2023-01-11T21:24:17.763Z,97063.81
2023-01-11T21:26:45.990Z,97080.91
2023-01-11T21:29:14.292Z,97085.56
2023-01-11T21:31:42.626Z,97072.03
2023-01-11T21:34:12.323Z,97083.56
2023-01-11T21:36:41.995Z,97082.22
2023-01-11T21:39:14.078Z,97086.63
2023-01-11T21:41:58.179Z,97094.03
2023-01-11T21:44:31.863Z,97094.16
2023-01-11T21:47:00.176Z,97096.72
2023-01-11T21:49:28.267Z,97092.78
2023-01-11T21:51:57.416Z,97095.81
2023-01-11T21:54:25.413Z,97100.66
2023-01-11T21:56:53.232Z,97117.03
2023-01-11T21:59:21.584Z,97115.97
2023-01-11T22:01:49.892Z,97113.41
2023-01-11T22:04:19.347Z,97114.59
2023-01-11T22:06:51.605Z,97118.88
2023-01-11T22:09:21.662Z,97119.03
2023-01-11T22:11:50.950Z,97121.06
2023-01-11T22:14:20.223Z,97115.94
2023-01-11T22:16:48.132Z,97135.84
2023-01-11T22:19:16.070Z,97123.31
2023-01-11T22:21:43.861Z,97123.78
2023-01-11T22:24:13.532Z,97123.94
2023-01-11T22:26:42.769Z,97121.38
2023-01-11T22:29:15.148Z,97111.25
2023-01-11T22:31:47.163Z,97108.16
2023-01-11T22:34:16.423Z,97110.38
2023-01-11T22:36:45.189Z,97098.75
2023-01-11T22:39:14.390Z,97101.59
2023-01-11T22:41:45.616Z,97104.97
2023-01-11T22:44:14.702Z,97107.56
2023-01-11T22:46:43.346Z,97110.50
2023-01-11T22:49:11.736Z,97120.03
2023-01-11T22:51:41.635Z,97128.53
2023-01-11T22:54:10.199Z,97123.53
2023-01-11T22:56:38.005Z,97136.69
2023-01-11T22:59:07.445Z,97132.66
2023-01-11T23:01:37.237Z,97144.00
2023-01-11T23:04:06.852Z,97131.66
2023-01-11T23:06:36.161Z,97138.25
2023-01-11T23:09:04.949Z,97141.81
2023-01-11T23:11:55.060Z,97146.38
2023-01-11T23:14:29.800Z,97152.06
2023-01-11T23:16:59.815Z,97143.66
2023-01-11T23:19:27.534Z,97145.47
2023-01-11T23:21:55.837Z,97144.28
2023-01-11T23:24:23.804Z,97142.00
2023-01-11T23:26:51.699Z,97135.16
2023-01-11T23:29:19.510Z,97132.41
2023-01-11T23:31:49.069Z,97138.53
2023-01-11T23:34:17.372Z,97125.38
2023-01-11T23:36:45.370Z,97114.78
2023-01-11T23:39:15.126Z,97130.03
2023-01-11T23:42:00.545Z,97118.31
2023-01-11T23:44:28.931Z,97131.22
2023-01-11T23:47:15.606Z,97118.91
2023-01-11T23:49:44.348Z,97117.72
2023-01-11T23:52:12.347Z,97125.84
2023-01-11T23:54:40.270Z,97122.41
2023-01-11T23:57:09.258Z,97111.22
2023-01-11T23:59:37.110Z,97108.22
